Time;durP1;ratioP1;P1;durP2;ratioP2;P2;SDS_P1;SDS_P2;PMS_P1;PMS_P2;Temp;Humidity;BMP_temperature;BMP_pressure;BME280_temperature;BME280_humidity;BME280_pressure;Samples;Min_cycle;Max_cycle;Signal;HPM_P1;HPM_P2
2022/10/12 04:02:40;;;;;;;16.40;12.40;;;12.80;99.90;;;;;;4928364;23;21148;-76
2022/10/12 04:05:07;;;;;;;15.43;10.97;;;12.80;99.90;;;;;;4927732;29;20497;-74
2022/10/12 04:07:34;;;;;;;18.63;12.50;;;12.80;99.90;;;;;;4928415;29;20509;-76
2022/10/12 04:10:02;;;;;;;16.03;11.63;;;12.80;99.90;;;;;;4942424;29;20481;-76
2022/10/12 04:12:28;;;;;;;19.73;11.70;;;12.80;99.90;;;;;;4924974;29;20849;-74
2022/10/12 04:14:55;;;;;;;26.63;11.60;;;12.80;99.90;;;;;;4926801;29;20966;-74
2022/10/12 04:17:22;;;;;;;19.73;10.93;;;12.80;99.90;;;;;;4927999;29;20462;-74
2022/10/12 04:19:52;;;;;;;16.60;12.10;;;12.80;99.90;;;;;;4926598;29;20465;-75
2022/10/12 04:22:18;;;;;;;20.00;12.77;;;12.80;99.90;;;;;;4918132;29;20482;-75
2022/10/12 04:24:45;;;;;;;19.30;12.00;;;12.80;99.90;;;;;;4919906;29;20853;-75
2022/10/12 04:27:12;;;;;;;24.23;13.50;;;12.70;99.90;;;;;;4928391;29;20505;-74
2022/10/12 04:29:39;;;;;;;21.87;13.20;;;12.80;99.90;;;;;;4928357;29;20466;-73
2022/10/12 04:32:06;;;;;;;20.07;11.90;;;12.70;99.90;;;;;;4926789;29;20478;-76
2022/10/12 04:34:34;;;;;;;17.20;13.00;;;12.70;99.90;;;;;;4927480;29;21045;-76
2022/10/12 04:37:03;;;;;;;14.83;11.50;;;12.70;99.90;;;;;;4928333;29;20466;-76
2022/10/12 04:39:30;;;;;;;21.47;13.43;;;12.60;99.90;;;;;;4931203;29;20458;-77
2022/10/12 04:41:57;;;;;;;19.07;12.30;;;12.60;99.90;;;;;;4932101;29;20501;-76
2022/10/12 04:44:23;;;;;;;15.50;12.23;;;12.50;99.90;;;;;;4930793;29;20454;-76
2022/10/12 04:46:50;;;;;;;18.83;12.87;;;12.50;99.90;;;;;;4930357;29;20467;-76
2022/10/12 04:49:17;;;;;;;17.40;11.53;;;12.50;99.90;;;;;;4923333;29;20458;-76
2022/10/12 04:51:44;;;;;;;18.23;12.43;;;12.50;99.90;;;;;;4930880;29;20490;-76
2022/10/12 04:54:12;;;;;;;16.77;12.27;;;12.50;99.90;;;;;;4930250;29;20474;-76
2022/10/12 04:56:39;;;;;;;18.07;13.40;;;12.50;99.90;;;;;;4930340;29;20470;-76
2022/10/12 04:59:06;;;;;;;20.50;11.50;;;12.50;99.90;;;;;;4929539;29;20468;-76
2022/10/12 05:01:32;;;;;;;17.10;12.67;;;12.50;99.90;;;;;;4929958;29;20492;-76
2022/10/12 05:04:00;;;;;;;18.13;13.13;;;12.50;99.90;;;;;;4929472;29;20462;-77
2022/10/12 05:06:26;;;;;;;19.00;12.57;;;12.50;99.90;;;;;;4929795;29;20454;-76
2022/10/12 05:08:53;;;;;;;22.10;13.27;;;12.40;99.90;;;;;;4929670;29;20494;-76
2022/10/12 05:11:21;;;;;;;18.80;13.57;;;12.30;99.90;;;;;;4929697;29;20482;-76
2022/10/12 05:13:48;;;;;;;30.30;13.93;;;12.30;99.90;;;;;;4929906;29;20471;-76
2022/10/12 05:16:15;;;;;;;18.13;12.47;;;12.30;99.90;;;;;;4929410;29;20465;-76
2022/10/12 05:18:42;;;;;;;18.87;14.37;;;12.40;99.90;;;;;;4930272;29;20469;-77
2022/10/12 05:21:09;;;;;;;20.20;13.80;;;12.40;99.90;;;;;;4929566;29;20847;-77
2022/10/12 05:23:35;;;;;;;20.17;13.73;;;12.30;99.90;;;;;;4929896;29;20457;-76
2022/10/12 05:26:03;;;;;;;20.27;14.73;;;12.30;99.90;;;;;;4928050;29;20470;-76
2022/10/12 05:28:31;;;;;;;21.00;14.00;;;12.30;99.90;;;;;;4929660;29;20494;-76
2022/10/12 05:30:58;;;;;;;17.83;13.17;;;12.40;99.90;;;;;;4930142;29;20466;-76
2022/10/12 05:33:25;;;;;;;18.30;13.90;;;12.40;99.90;;;;;;4930464;29;20472;-76
2022/10/12 05:35:51;;;;;;;20.77;13.17;;;12.40;99.90;;;;;;4929744;29;20529;-76
2022/10/12 05:38:18;;;;;;;18.43;14.30;;;12.40;99.90;;;;;;4930041;29;20804;-76
2022/10/12 05:40:45;;;;;;;21.53;13.47;;;12.50;99.90;;;;;;4930163;29;20486;-75
2022/10/12 05:43:12;;;;;;;23.37;12.67;;;12.50;99.90;;;;;;4929905;29;20458;-75
2022/10/12 05:45:40;;;;;;;15.13;10.87;;;12.50;99.90;;;;;;4929606;29;20479;-75
2022/10/12 05:48:06;;;;;;;16.73;11.70;;;12.60;99.90;;;;;;4930148;29;20505;-76
2022/10/12 05:50:33;;;;;;;19.20;11.80;;;12.50;99.90;;;;;;4924548;29;20489;-76
2022/10/12 05:53:00;;;;;;;15.60;11.90;;;12.60;99.90;;;;;;4921917;29;20477;-76
2022/10/12 05:55:27;;;;;;;17.03;11.60;;;12.60;99.90;;;;;;4928246;29;20462;-75
2022/10/12 05:57:54;;;;;;;19.57;12.00;;;12.60;99.90;;;;;;4929775;29;20466;-75
2022/10/12 06:00:21;;;;;;;20.07;11.60;;;12.60;99.90;;;;;;4929865;29;20459;-76
2022/10/12 06:02:49;;;;;;;24.50;13.50;;;12.60;99.90;;;;;;4928662;29;20451;-76
2022/10/12 06:05:16;;;;;;;17.33;13.67;;;12.60;99.90;;;;;;4928764;29;20892;-76
2022/10/12 06:07:43;;;;;;;20.87;15.17;;;12.50;99.90;;;;;;4928868;29;20497;-76
2022/10/12 06:10:10;;;;;;;21.50;14.90;;;12.50;99.90;;;;;;4929469;29;20463;-77
2022/10/12 06:12:37;;;;;;;19.00;14.60;;;12.50;99.90;;;;;;4929074;29;20545;-77
2022/10/12 06:15:05;;;;;;;20.07;12.67;;;12.50;99.90;;;;;;4927834;29;20470;-76
2022/10/12 06:17:32;;;;;;;18.67;12.40;;;12.50;99.90;;;;;;4929339;29;20465;-76
2022/10/12 06:20:00;;;;;;;21.70;13.13;;;12.60;99.90;;;;;;4929592;29;20458;-76
2022/10/12 06:22:26;;;;;;;20.43;13.57;;;12.60;99.90;;;;;;4928769;29;20478;-76
2022/10/12 06:24:53;;;;;;;21.80;14.77;;;12.60;99.90;;;;;;4928264;29;20469;-76
2022/10/12 06:27:20;;;;;;;23.30;13.53;;;12.70;99.90;;;;;;4921989;29;20490;-76
2022/10/12 06:29:47;;;;;;;25.80;15.37;;;12.70;99.90;;;;;;4922446;29;20477;-76
2022/10/12 06:32:14;;;;;;;25.20;15.20;;;12.70;99.90;;;;;;4920409;29;20501;-76
2022/10/12 06:34:40;;;;;;;24.23;14.67;;;12.70;99.90;;;;;;4919010;29;21473;-76
2022/10/12 06:37:08;;;;;;;21.60;15.37;;;12.70;99.90;;;;;;4918187;29;20943;-76
2022/10/12 06:39:35;;;;;;;22.97;14.97;;;12.80;99.90;;;;;;4919821;29;20458;-76
2022/10/12 06:42:02;;;;;;;22.23;15.30;;;12.80;99.90;;;;;;4919640;29;20506;-76
2022/10/12 06:44:29;;;;;;;19.13;13.13;;;12.80;99.90;;;;;;4919528;29;20486;-76
2022/10/12 06:46:56;;;;;;;20.60;13.70;;;12.80;99.90;;;;;;4919531;29;20469;-76
2022/10/12 06:49:23;;;;;;;23.10;13.93;;;12.70;99.90;;;;;;4917938;29;20501;-76
2022/10/12 06:51:50;;;;;;;21.77;13.30;;;12.80;99.90;;;;;;4915202;29;20983;-76
2022/10/12 06:54:18;;;;;;;18.40;14.30;;;12.80;99.90;;;;;;4918596;29;20458;-76
2022/10/12 06:56:44;;;;;;;18.30;14.10;;;12.80;99.90;;;;;;4920322;29;20451;-76
2022/10/12 06:59:12;;;;;;;22.67;14.30;;;12.90;99.90;;;;;;4916440;29;20463;-76
2022/10/12 07:01:39;;;;;;;18.17;13.93;;;12.90;99.90;;;;;;4917276;29;20605;-76
2022/10/12 07:04:06;;;;;;;27.60;14.37;;;13.00;99.90;;;;;;4920367;29;20469;-76
2022/10/12 07:06:33;;;;;;;18.70;14.00;;;13.00;99.90;;;;;;4928935;29;20463;-76
2022/10/12 07:09:00;;;;;;;21.00;13.90;;;13.00;99.90;;;;;;4916176;29;20525;-76
2022/10/12 07:11:28;;;;;;;26.20;15.60;;;13.00;99.90;;;;;;4920900;29;20505;-76
2022/10/12 07:13:54;;;;;;;22.40;14.90;;;13.00;99.90;;;;;;4929009;29;20465;-77
2022/10/12 07:16:21;;;;;;;26.37;14.30;;;13.00;99.90;;;;;;4928362;29;20489;-76
2022/10/12 07:18:48;;;;;;;21.07;15.70;;;13.10;99.90;;;;;;4928523;29;20536;-76
2022/10/12 07:21:15;;;;;;;20.80;15.10;;;13.10;99.90;;;;;;4928489;29;20514;-76
2022/10/12 07:23:42;;;;;;;17.30;13.23;;;13.20;99.90;;;;;;4928880;29;20459;-76
2022/10/12 07:26:09;;;;;;;20.77;13.57;;;13.20;99.90;;;;;;4927641;29;20946;-76
2022/10/12 07:28:37;;;;;;;22.07;15.37;;;13.20;99.90;;;;;;4928574;29;20682;-76
2022/10/12 07:31:06;;;;;;;23.70;14.93;;;13.20;99.90;;;;;;4928454;29;21371;-77
2022/10/12 07:33:34;;;;;;;23.63;16.67;;;13.30;99.90;;;;;;4928357;29;20466;-76
2022/10/12 07:36:01;;;;;;;23.97;15.93;;;13.30;99.90;;;;;;4928165;29;20470;-76
2022/10/12 07:38:29;;;;;;;20.43;15.70;;;13.30;99.90;;;;;;4928614;29;20458;-76
2022/10/12 07:40:59;;;;;;;26.13;15.93;;;13.40;99.90;;;;;;4928609;29;20849;-77
2022/10/12 07:43:25;;;;;;;24.70;16.30;;;13.40;99.90;;;;;;4928645;29;20461;-77
2022/10/12 07:45:54;;;;;;;25.57;15.97;;;13.50;99.90;;;;;;4928457;29;21308;-73
2022/10/12 07:48:21;;;;;;;26.67;16.53;;;13.50;99.90;;;;;;4928224;29;21037;-74
2022/10/12 07:50:48;;;;;;;26.93;15.93;;;13.50;99.90;;;;;;4928361;29;20486;-74
2022/10/12 07:53:15;;;;;;;27.80;15.40;;;13.60;99.90;;;;;;4928315;29;20466;-75
2022/10/12 07:55:42;;;;;;;34.50;17.13;;;13.60;99.90;;;;;;4927628;29;20462;-75
2022/10/12 07:58:09;;;;;;;23.77;16.77;;;13.70;99.90;;;;;;4928661;29;20469;-75
2022/10/12 08:00:36;;;;;;;23.37;16.53;;;13.70;99.90;;;;;;4927762;29;20497;-75
2022/10/12 08:03:04;;;;;;;28.23;15.63;;;13.70;99.90;;;;;;4928465;29;20453;-76
2022/10/12 08:05:31;;;;;;;21.93;14.60;;;13.70;99.90;;;;;;4927703;29;20476;-74
2022/10/12 08:07:59;;;;;;;21.60;16.10;;;13.80;99.90;;;;;;4928212;29;20490;-74
2022/10/12 08:10:25;;;;;;;21.10;15.10;;;13.80;99.90;;;;;;4924032;29;20478;-75
2022/10/12 08:12:52;;;;;;;21.40;14.93;;;13.90;99.90;;;;;;4921947;29;20509;-75
2022/10/12 08:15:19;;;;;;;24.23;15.57;;;14.00;99.90;;;;;;4931085;29;20466;-75
2022/10/12 08:17:46;;;;;;;30.03;16.63;;;14.10;99.90;;;;;;4930696;29;20841;-74
2022/10/12 08:20:14;;;;;;;24.07;17.43;;;14.20;99.90;;;;;;4931096;29;20466;-74
2022/10/12 08:22:41;;;;;;;27.87;18.27;;;14.20;99.90;;;;;;4931792;29;20450;-75
2022/10/12 08:25:08;;;;;;;34.23;20.83;;;14.30;99.90;;;;;;4931060;29;20450;-74
2022/10/12 08:27:37;;;;;;;31.47;19.50;;;14.30;99.90;;;;;;4931600;29;20470;-74
2022/10/12 08:30:04;;;;;;;35.03;21.90;;;14.40;99.90;;;;;;4930972;29;20508;-74
2022/10/12 08:32:34;;;;;;;37.33;22.47;;;14.50;99.90;;;;;;4931275;29;21551;-75
2022/10/12 08:35:01;;;;;;;34.50;21.57;;;14.60;99.90;;;;;;4930991;29;20466;-74
2022/10/12 08:37:30;;;;;;;40.03;22.63;;;14.60;99.90;;;;;;4931108;29;20533;-72
2022/10/12 08:39:57;;;;;;;32.13;21.70;;;14.70;99.90;;;;;;4931547;29;20458;-74
2022/10/12 08:42:36;;;;;;;38.30;21.63;;;14.80;99.90;;;;;;4931727;29;20571;-75
2022/10/12 08:45:18;;;;;;;34.90;20.20;;;14.90;99.90;;;;;;4930706;29;20454;-74
2022/10/12 08:47:50;;;;;;;34.43;19.20;;;15.00;99.90;;;;;;4931433;29;20462;-75
2022/10/12 08:50:27;;;;;;;36.30;22.50;;;15.10;99.90;;;;;;4930932;29;21037;-73
2022/10/12 08:53:00;;;;;;;28.70;20.20;;;15.10;99.90;;;;;;4931687;29;20558;-75
2022/10/12 08:55:35;;;;;;;33.13;21.30;;;15.20;99.90;;;;;;4930466;29;20450;-77
2022/10/12 08:58:03;;;;;;;32.00;20.37;;;15.30;99.90;;;;;;4931499;29;20446;-73
2022/10/12 09:00:33;;;;;;;32.10;19.77;;;15.50;99.90;;;;;;4931204;29;20454;-75
2022/10/12 09:03:13;;;;;;;34.20;21.50;;;15.60;99.90;;;;;;4931362;29;20446;-75
2022/10/12 09:05:48;;;;;;;37.57;19.73;;;15.90;99.90;;;;;;4930574;29;20451;-73
2022/10/12 09:08:27;;;;;;;31.70;20.00;;;16.00;99.90;;;;;;4931051;29;20485;-76
2022/10/12 09:10:59;;;;;;;31.97;19.73;;;16.00;99.90;;;;;;4931248;29;20496;-75
2022/10/12 09:13:40;;;;;;;24.87;18.07;;;16.20;99.90;;;;;;4922763;29;20463;-74
2022/10/12 09:16:18;;;;;;;27.10;18.90;;;16.20;99.90;;;;;;4892747;29;20549;-74
2022/10/12 09:18:48;;;;;;;32.07;19.60;;;16.30;99.90;;;;;;4892892;29;20921;-73
2022/10/12 09:21:18;;;;;;;26.80;18.00;;;16.60;99.90;;;;;;4893121;29;20523;-72
2022/10/12 09:23:47;;;;;;;29.33;18.50;;;16.80;99.90;;;;;;4891604;29;20468;-73
2022/10/12 09:26:16;;;;;;;30.83;19.73;;;17.00;99.90;;;;;;4892460;29;20464;-72
2022/10/12 09:28:45;;;;;;;28.00;18.67;;;17.00;99.90;;;;;;4892809;29;20491;-73
2022/10/12 09:31:37;;;;;;;28.23;18.40;;;17.20;99.90;;;;;;4892760;29;20499;-72
2022/10/12 09:34:05;;;;;;;30.97;19.37;;;17.30;99.90;;;;;;4892280;29;20452;-71
2022/10/12 09:36:35;;;;;;;33.53;19.50;;;17.60;99.90;;;;;;4892612;29;20997;-74
2022/10/12 09:39:06;;;;;;;30.80;17.93;;;17.90;99.90;;;;;;4892862;29;21264;-74
2022/10/12 09:41:36;;;;;;;36.57;19.00;;;17.90;99.90;;;;;;4892322;29;20480;-73
2022/10/12 09:44:05;;;;;;;26.90;17.77;;;17.90;99.90;;;;;;4892008;29;20910;-73
2022/10/12 09:46:39;;;;;;;25.43;17.50;;;18.00;99.90;;;;;;4891945;29;20474;-73
2022/10/12 09:49:06;;;;;;;25.77;16.40;;;18.30;99.90;;;;;;4892414;29;20555;-73
2022/10/12 09:51:33;;;;;;;25.83;15.50;;;18.50;99.90;;;;;;4892432;29;20858;-73
2022/10/12 09:54:03;;;;;;;24.23;15.63;;;18.70;99.90;;;;;;4891920;29;20468;-74
2022/10/12 09:56:38;;;;;;;22.67;14.53;;;19.00;99.90;;;;;;4892304;29;20804;-72
2022/10/12 09:59:07;;;;;;;24.67;14.33;;;19.00;99.90;;;;;;4892200;29;20531;-73
2022/10/12 10:01:35;;;;;;;22.37;16.13;;;19.10;99.90;;;;;;4892317;29;20504;-73
2022/10/12 10:04:23;;;;;;;22.20;14.80;;;19.00;99.90;;;;;;4891957;29;20474;-74
2022/10/12 10:06:50;;;;;;;24.77;15.63;;;18.90;99.90;;;;;;4887807;29;20480;-73
2022/10/12 10:09:32;;;;;;;20.57;13.83;;;18.80;99.90;;;;;;4891673;29;20496;-72
2022/10/12 10:12:13;;;;;;;21.63;15.77;;;18.70;99.90;;;;;;4891993;29;21020;-73
2022/10/12 10:14:43;;;;;;;22.47;15.70;;;18.70;99.90;;;;;;4891414;29;20475;-70
2022/10/12 10:17:14;;;;;;;28.37;16.73;;;18.70;99.90;;;;;;4891819;29;20498;-72
2022/10/12 10:19:49;;;;;;;30.23;17.73;;;18.60;99.90;;;;;;4892053;29;20456;-73
2022/10/12 10:22:16;;;;;;;23.37;15.33;;;18.50;99.90;;;;;;4891807;29;20491;-72
2022/10/12 10:24:43;;;;;;;24.53;16.17;;;18.50;99.90;;;;;;4890582;29;20457;-74
2022/10/12 10:27:28;;;;;;;24.53;14.20;;;18.40;99.90;;;;;;4891731;29;20464;-74
2022/10/12 10:30:19;;;;;;;22.80;15.27;;;18.50;99.90;;;;;;4891775;29;20860;-73
2022/10/12 10:32:47;;;;;;;28.47;16.87;;;18.40;99.90;;;;;;4891816;29;20496;-74
2022/10/12 10:35:20;;;;;;;20.30;15.30;;;18.30;99.90;;;;;;4890942;29;20468;-73
2022/10/12 10:37:49;;;;;;;20.70;13.33;;;18.40;99.90;;;;;;4893612;29;20478;-75
2022/10/12 10:40:22;;;;;;;26.57;14.90;;;18.30;99.90;;;;;;4910073;29;20601;-74
2022/10/12 10:42:52;;;;;;;20.70;16.30;;;18.30;99.90;;;;;;4910178;29;20474;-76
2022/10/12 10:45:24;;;;;;;24.40;15.83;;;18.30;99.90;;;;;;4909398;29;20956;-74
2022/10/12 10:48:00;;;;;;;21.03;14.90;;;18.10;99.90;;;;;;4910794;29;20463;-77
2022/10/12 10:50:32;;;;;;;23.77;15.93;;;18.00;99.90;;;;;;4909931;29;21007;-75
2022/10/12 10:53:02;;;;;;;23.37;15.20;;;18.10;99.90;;;;;;4909833;29;20486;-74
2022/10/12 10:55:42;;;;;;;23.13;14.47;;;18.10;99.90;;;;;;4909552;29;20478;-74
2022/10/12 10:58:22;;;;;;;22.07;16.50;;;18.00;99.90;;;;;;4909919;29;20470;-72
2022/10/12 11:00:52;;;;;;;20.13;13.10;;;18.00;99.90;;;;;;4909510;29;21405;-72
2022/10/12 11:03:24;;;;;;;19.60;13.37;;;18.10;99.90;;;;;;4909640;29;21251;-72
2022/10/12 11:05:56;;;;;;;21.43;13.63;;;18.00;99.90;;;;;;4908997;29;20470;-74
2022/10/12 11:08:26;;;;;;;20.50;12.67;;;18.10;99.90;;;;;;4910194;29;20459;-74
2022/10/12 11:10:57;;;;;;;20.80;12.40;;;18.10;99.90;;;;;;4909738;29;20503;-75
2022/10/12 11:13:31;;;;;;;17.37;12.57;;;18.10;99.90;;;;;;4909916;29;20450;-75
2022/10/12 11:16:03;;;;;;;18.93;11.87;;;18.00;99.90;;;;;;4908769;29;20945;-74
2022/10/12 11:18:36;;;;;;;18.67;12.00;;;18.00;99.90;;;;;;4909688;29;20459;-74
2022/10/12 11:21:08;;;;;;;20.17;12.97;;;18.00;99.90;;;;;;4909529;29;21068;-74
2022/10/12 11:23:42;;;;;;;19.07;12.03;;;18.10;99.90;;;;;;4909434;29;20459;-73
2022/10/12 11:26:20;;;;;;;19.20;13.00;;;18.10;99.90;;;;;;4908809;29;20979;-74
2022/10/12 11:28:49;;;;;;;17.50;12.63;;;18.10;99.90;;;;;;4909545;29;20473;-75
2022/10/12 11:31:21;;;;;;;20.67;11.30;;;18.00;99.90;;;;;;4909533;29;20475;-74
2022/10/12 11:33:49;;;;;;;19.97;11.43;;;18.00;99.90;;;;;;4909662;29;20501;-75
2022/10/12 11:36:20;;;;;;;14.73;11.30;;;18.00;99.90;;;;;;4908974;29;20467;-75
2022/10/12 11:38:52;;;;;;;21.13;11.67;;;18.10;99.90;;;;;;4909390;29;20475;-73
2022/10/12 11:41:21;;;;;;;19.97;11.77;;;18.10;99.90;;;;;;4909347;29;20486;-75
2022/10/12 11:43:55;;;;;;;21.13;12.60;;;18.20;99.90;;;;;;4909599;29;20467;-75
2022/10/12 11:46:28;;;;;;;21.13;12.80;;;18.10;99.90;;;;;;4909544;29;20470;-74
2022/10/12 11:49:02;;;;;;;23.13;13.63;;;18.00;99.90;;;;;;4915376;29;20463;-74
2022/10/12 11:51:28;;;;;;;18.37;12.00;;;18.10;99.90;;;;;;4915503;29;20493;-73
2022/10/12 11:54:01;;;;;;;18.27;12.33;;;18.10;99.90;;;;;;4915803;29;20459;-75
2022/10/12 11:56:34;;;;;;;20.67;13.10;;;18.10;99.90;;;;;;4915131;29;20475;-74
2022/10/12 11:59:10;;;;;;;18.50;12.90;;;18.10;99.90;;;;;;4915794;29;20829;-74
2022/10/12 12:01:47;;;;;;;19.87;12.13;;;18.20;99.90;;;;;;4913998;29;20498;-74
2022/10/12 12:04:27;;;;;;;21.63;12.77;;;18.20;99.90;;;;;;4914365;29;20534;-75
2022/10/12 12:06:57;;;;;;;18.77;12.53;;;18.30;99.90;;;;;;4914749;29;20453;-75
2022/10/12 12:09:38;;;;;;;19.30;11.97;;;18.30;99.90;;;;;;4914665;29;20495;-73
2022/10/12 12:12:26;;;;;;;16.90;10.67;;;18.40;99.90;;;;;;4914223;29;20545;-73
2022/10/12 12:15:07;;;;;;;20.07;12.00;;;18.50;99.90;;;;;;4913502;29;20458;-75
2022/10/12 12:17:35;;;;;;;18.33;11.20;;;18.50;99.90;;;;;;4914575;29;20526;-73
2022/10/12 12:20:03;;;;;;;19.43;11.40;;;18.40;99.90;;;;;;4914302;29;20461;-74
2022/10/12 12:22:48;;;;;;;17.43;10.30;;;18.40;99.90;;;;;;4914042;29;20479;-74
2022/10/12 12:25:19;;;;;;;20.63;12.27;;;18.30;99.90;;;;;;4914094;29;20529;-76
2022/10/12 12:27:49;;;;;;;23.63;11.37;;;18.30;99.90;;;;;;4913914;29;20979;-71
2022/10/12 12:30:39;;;;;;;18.10;11.70;;;18.40;99.90;;;;;;4914394;29;20523;-74
2022/10/12 12:33:26;;;;;;;18.60;12.07;;;18.40;99.90;;;;;;4914391;29;20451;-75
2022/10/12 12:35:55;;;;;;;17.70;12.27;;;18.40;99.90;;;;;;4913741;29;20459;-73
2022/10/12 12:38:28;;;;;;;17.17;12.50;;;18.40;99.90;;;;;;4914622;29;20455;-71
2022/10/12 12:41:05;;;;;;;14.90;10.73;;;18.60;99.90;;;;;;4913535;29;20482;-74
2022/10/12 12:44:00;;;;;;;16.10;10.10;;;18.70;99.90;;;;;;4914025;29;20498;-73
2022/10/12 12:47:08;;;;;;;19.10;11.20;;;18.80;99.90;;;;;;4914681;29;20442;-69
2022/10/12 12:49:45;;;;;;;17.40;10.40;;;18.90;99.90;;;;;;4916436;29;21188;-76
2022/10/12 12:52:17;;;;;;;12.23;10.37;;;18.90;99.90;;;;;;4915904;29;20486;-74
2022/10/12 12:54:59;;;;;;;21.70;10.73;;;19.10;99.90;;;;;;4914231;29;20473;-74
2022/10/12 12:57:44;;;;;;;15.90;9.40;;;19.10;99.90;;;;;;4914549;29;20469;-74
2022/10/12 13:00:15;;;;;;;13.37;10.20;;;19.20;99.90;;;;;;4911043;29;20451;-74
2022/10/12 13:02:57;;;;;;;17.20;9.30;;;19.30;99.90;;;;;;4911325;29;21212;-74
2022/10/12 13:05:54;;;;;;;17.40;9.40;;;19.20;99.90;;;;;;4919103;29;20469;-74
2022/10/12 13:08:31;;;;;;;15.57;9.43;;;19.20;99.90;;;;;;4915425;29;20443;-74
2022/10/12 13:11:27;;;;;;;19.00;10.10;;;19.30;99.90;;;;;;4919857;29;20513;-77
2022/10/12 13:14:06;;;;;;;16.60;9.53;;;19.50;99.90;;;;;;4931064;29;20470;-75
2022/10/12 13:16:58;;;;;;;17.00;9.67;;;19.70;99.90;;;;;;4931293;29;20532;-74
2022/10/12 13:19:26;;;;;;;24.80;10.93;;;19.80;99.90;;;;;;4931155;29;20438;-75
2022/10/12 13:21:56;;;;;;;15.30;9.50;;;19.80;99.90;;;;;;4930688;29;20858;-75
2022/10/12 13:24:27;;;;;;;16.47;9.70;;;20.00;99.90;;;;;;4914775;29;20459;-76
2022/10/12 13:26:58;;;;;;;15.63;9.57;;;20.20;99.90;;;;;;4930925;29;20450;-74
2022/10/12 13:29:33;;;;;;;12.90;8.17;;;20.40;99.90;;;;;;4930315;29;20462;-74
2022/10/12 13:32:02;;;;;;;14.07;8.17;;;20.50;99.90;;;;;;4930422;29;20500;-74
2022/10/12 13:34:35;;;;;;;16.57;8.70;;;20.60;99.90;;;;;;4921924;29;20646;-74
2022/10/12 13:37:10;;;;;;;17.97;8.03;;;20.60;99.90;;;;;;4930586;29;20915;-75
2022/10/12 13:39:39;;;;;;;13.17;8.20;;;20.60;99.90;;;;;;4930900;29;20461;-74
2022/10/12 13:42:07;;;;;;;12.27;7.80;;;20.60;99.90;;;;;;4930284;29;20987;-75
2022/10/12 13:44:36;;;;;;;16.90;7.43;;;20.60;99.90;;;;;;4930369;29;20466;-75
2022/10/12 13:47:20;;;;;;;15.40;9.50;;;20.50;99.90;;;;;;4930574;29;20485;-75
2022/10/12 13:49:47;;;;;;;19.00;9.80;;;20.60;99.90;;;;;;4929983;29;20494;-75
2022/10/12 13:52:22;;;;;;;16.10;8.90;;;20.60;99.90;;;;;;4929899;29;21025;-75
2022/10/12 13:54:50;;;;;;;13.50;7.87;;;20.60;99.90;;;;;;4929354;29;20450;-75
2022/10/12 13:57:22;;;;;;;13.03;8.03;;;20.60;99.90;;;;;;4930159;29;20469;-75
2022/10/12 13:59:55;;;;;;;15.23;9.20;;;20.50;99.90;;;;;;4930043;29;20466;-75
2022/10/12 14:02:24;;;;;;;15.47;8.63;;;20.40;99.90;;;;;;4929768;29;21395;-74
2022/10/12 14:04:53;;;;;;;12.40;8.43;;;20.30;99.90;;;;;;4929496;29;20463;-75
2022/10/12 14:07:24;;;;;;;12.70;8.33;;;20.20;99.90;;;;;;4929796;29;20988;-74
2022/10/12 14:09:55;;;;;;;17.23;7.63;;;20.20;99.90;;;;;;4919954;29;20959;-71
2022/10/12 14:12:23;;;;;;;15.57;8.70;;;20.10;99.90;;;;;;4929673;29;20470;-72
2022/10/12 14:14:51;;;;;;;15.93;8.93;;;20.10;99.90;;;;;;4929145;29;20458;-72
2022/10/12 14:17:19;;;;;;;13.07;7.50;;;20.00;99.90;;;;;;4929286;29;20473;-72
2022/10/12 14:19:48;;;;;;;13.50;9.10;;;19.90;99.90;;;;;;4920782;29;20833;-73
2022/10/12 14:22:24;;;;;;;14.00;8.73;;;19.90;99.90;;;;;;4929596;29;20900;-69
2022/10/12 14:24:52;;;;;;;16.10;10.47;;;19.80;99.90;;;;;;4925670;29;20454;-69
2022/10/12 14:27:24;;;;;;;12.00;9.40;;;19.70;99.90;;;;;;4924682;29;20561;-69
2022/10/12 14:29:56;;;;;;;19.40;9.70;;;19.70;99.90;;;;;;4929555;29;20439;-68
2022/10/12 14:32:41;;;;;;;18.70;8.80;;;19.60;99.90;;;;;;4929464;29;20493;-69
2022/10/12 14:35:22;;;;;;;14.47;8.30;;;19.60;99.90;;;;;;4928545;29;21450;-67
2022/10/12 14:37:52;;;;;;;12.13;8.27;;;19.60;99.90;;;;;;4929515;29;20458;-74
2022/10/12 14:40:32;;;;;;;17.23;8.23;;;19.50;99.90;;;;;;4929518;29;20494;-74
2022/10/12 14:43:02;;;;;;;17.03;9.50;;;19.50;99.90;;;;;;4931430;29;20866;-72
2022/10/12 14:45:29;;;;;;;16.50;8.27;;;19.50;99.90;;;;;;4927973;29;20468;-74
2022/10/12 14:47:58;;;;;;;14.40;8.40;;;19.50;99.90;;;;;;4927893;29;20455;-75
2022/10/12 14:50:25;;;;;;;16.80;9.57;;;19.50;99.90;;;;;;4928559;29;20490;-74
2022/10/12 14:52:56;;;;;;;12.37;8.03;;;19.50;99.90;;;;;;4928584;29;20473;-75
2022/10/12 14:55:25;;;;;;;17.00;7.37;;;19.60;99.90;;;;;;4928490;29;20450;-74
2022/10/12 14:57:52;;;;;;;11.50;7.47;;;19.80;99.90;;;;;;4928536;29;20462;-73
2022/10/12 15:00:22;;;;;;;15.13;8.47;;;19.90;99.90;;;;;;4928762;29;20465;-75
2022/10/12 15:02:51;;;;;;;9.83;6.47;;;20.10;99.90;;;;;;4928927;29;21257;-74
2022/10/12 15:05:21;;;;;;;11.83;6.80;;;20.30;99.90;;;;;;4927969;29;20462;-74
2022/10/12 15:07:48;;;;;;;11.33;6.63;;;20.50;99.90;;;;;;4928923;29;20533;-75
2022/10/12 15:10:18;;;;;;;11.50;6.67;;;20.60;99.90;;;;;;4928461;29;20945;-75
2022/10/12 15:12:45;;;;;;;9.67;6.60;;;20.80;99.90;;;;;;4929099;29;20450;-69
2022/10/12 15:15:24;;;;;;;13.67;7.20;;;21.00;99.90;;;;;;4928266;29;20458;-69
2022/10/12 15:17:51;;;;;;;12.37;7.37;;;21.20;99.90;;;;;;4928642;29;20926;-69
2022/10/12 15:20:18;;;;;;;13.27;6.93;;;21.30;99.90;;;;;;4928667;29;20459;-69
2022/10/12 15:22:45;;;;;;;20.43;7.97;;;21.30;99.90;;;;;;4927912;29;20458;-70
2022/10/12 15:25:20;;;;;;;13.63;7.90;;;21.30;99.90;;;;;;4927753;29;20465;-71
2022/10/12 15:27:47;;;;;;;22.20;8.40;;;21.30;99.90;;;;;;4928852;29;20438;-66
2022/10/12 15:30:14;;;;;;;14.67;8.20;;;21.10;99.90;;;;;;4928184;29;20962;-69
2022/10/12 15:32:41;;;;;;;11.90;6.87;;;20.90;99.90;;;;;;4928599;29;20466;-69
2022/10/12 15:35:21;;;;;;;13.97;8.00;;;20.80;99.90;;;;;;4927804;29;20458;-69
2022/10/12 15:37:49;;;;;;;21.60;8.67;;;20.60;99.90;;;;;;4910944;29;20458;-69
2022/10/12 15:40:17;;;;;;;15.37;8.30;;;20.50;99.90;;;;;;4909171;29;20523;-68
2022/10/12 15:42:45;;;;;;;14.33;8.43;;;20.30;99.90;;;;;;4908650;29;20886;-66
2022/10/12 15:45:21;;;;;;;14.70;9.20;;;20.20;99.90;;;;;;4908828;29;20485;-69
2022/10/12 15:47:49;;;;;;;14.07;8.50;;;20.10;99.90;;;;;;4909184;29;20463;-69
2022/10/12 15:50:18;;;;;;;17.40;9.20;;;20.00;99.90;;;;;;4908912;29;20451;-69
2022/10/12 15:52:45;;;;;;;14.43;8.83;;;19.90;99.90;;;;;;4908973;29;20459;-69
2022/10/12 15:55:15;;;;;;;11.50;7.67;;;19.80;99.90;;;;;;4908655;29;20459;-66
2022/10/12 15:57:42;;;;;;;18.43;8.47;;;19.70;99.90;;;;;;4909441;29;21325;-68
2022/10/12 16:00:12;;;;;;;16.80;8.30;;;19.60;99.90;;;;;;4909588;29;20456;-68
2022/10/12 16:02:39;;;;;;;19.57;9.20;;;19.60;99.90;;;;;;4908697;29;20988;-68
2022/10/12 16:05:16;;;;;;;16.47;9.67;;;19.50;99.90;;;;;;4908402;29;20546;-68
2022/10/12 16:07:42;;;;;;;14.23;8.77;;;19.50;99.90;;;;;;4908526;29;20455;-68
2022/10/12 16:10:13;;;;;;;17.30;10.37;;;19.30;99.90;;;;;;4909214;29;20465;-66
2022/10/12 16:12:41;;;;;;;15.00;9.70;;;19.30;99.90;;;;;;4908936;29;20522;-76
2022/10/12 16:15:12;;;;;;;20.23;9.50;;;19.20;99.90;;;;;;4908563;29;20467;-73
2022/10/12 16:17:42;;;;;;;16.80;9.90;;;19.20;99.90;;;;;;4909498;29;20447;-72
2022/10/12 16:20:10;;;;;;;18.23;9.83;;;19.10;99.90;;;;;;4908860;29;20940;-72
2022/10/12 16:22:37;;;;;;;15.93;8.23;;;19.10;99.90;;;;;;4909284;29;20479;-72
2022/10/12 16:25:06;;;;;;;15.07;8.07;;;19.00;99.90;;;;;;4908565;29;20467;-72
2022/10/12 16:27:33;;;;;;;13.80;8.30;;;19.00;99.90;;;;;;4909196;29;20463;-76
2022/10/12 16:29:59;;;;;;;11.30;7.60;;;18.90;99.90;;;;;;4909083;29;20482;-72
2022/10/12 16:32:28;;;;;;;17.13;9.37;;;18.90;99.90;;;;;;4908973;29;20888;-78
2022/10/12 16:34:55;;;;;;;18.00;8.80;;;18.80;99.90;;;;;;4911940;29;20470;-75
2022/10/12 16:37:22;;;;;;;11.23;8.47;;;18.80;99.90;;;;;;4912807;29;20474;-73
2022/10/12 16:39:49;;;;;;;13.20;8.93;;;18.70;99.90;;;;;;4912431;29;21192;-73
2022/10/12 16:42:15;;;;;;;13.37;8.10;;;18.60;99.90;;;;;;4912580;29;20474;-78
2022/10/12 16:44:42;;;;;;;13.03;8.60;;;18.50;99.90;;;;;;4912275;29;20466;-72
2022/10/12 16:47:09;;;;;;;17.17;8.20;;;18.50;99.90;;;;;;4912644;29;20465;-74
2022/10/12 16:49:37;;;;;;;17.33;8.67;;;18.40;99.90;;;;;;4912313;29;20554;-72